Flight Track Log - Related Links

Times and Time Zones

All times are in EDT time to prevent confusion due to time zone crossing. See the THY1074 flight status page for this flight to view local times or setup timezone preferences in your user account.

Time Position Orientation Groundspeed Altitude Reporting Facility
EDT Latitude Longitude Course Direction KTS MPH feet Rate Location/Type
Mon 04:19:00 AM 41.3976 20.9551 91° East  Level Estimated
Mon 04:20:00 AM 41.3952 21.0785 91° East  Level Estimated
Mon 04:21:00 AM 41.3926 21.2019 92° East  Level Estimated
Mon 04:22:00 AM 41.3899 21.3253 92° East  Level Estimated
Mon 04:23:00 AM 41.3871 21.4486 92° East  Level Estimated
Mon 04:24:00 AM 41.3841 21.5720 92° East  Level Estimated
Mon 04:25:00 AM 41.3810 21.6954 92° East  Level Estimated
Mon 04:26:00 AM 41.3778 21.8187 92° East  Level Estimated
Mon 04:27:00 AM 41.3745 21.9420 92° East  Level Estimated
Mon 04:28:00 AM 41.3710 22.0653 92° East  Level Estimated
Mon 04:29:00 AM 41.3673 22.1887 92° East  Level Estimated
Mon 04:30:00 AM 41.3636 22.3120 92° East  Level Estimated
Mon 04:31:00 AM 41.3597 22.4352 92° East  Level Estimated
Mon 04:32:00 AM 41.3557 22.5585 92° East  Level Estimated
Mon 04:33:00 AM 41.3515 22.6817 93° East  Level Estimated
Mon 04:34:00 AM 41.3473 22.8050 93° East  Level Estimated
Mon 04:35:00 AM 41.3428 22.9282 93° East  Level Estimated
Mon 04:36:00 AM 41.3383 23.0514 93° East  Level Estimated
Mon 04:37:00 AM 41.3336 23.1745 93° East  Level Estimated
Mon 04:38:00 AM 41.3288 23.2977 93° East  Level Estimated
Mon 04:39:00 AM 41.3239 23.4209 93° East  Level Estimated
Mon 04:40:00 AM 41.3188 23.5440 93° East  Level Estimated
Mon 04:41:00 AM 41.3136 23.6671 93° East  Level Estimated
Mon 04:42:00 AM 41.3083 23.7902 93° East  Level Estimated
Mon 04:43:00 AM 41.3028 23.9132 93° East  Level Estimated
Mon 04:44:00 AM 41.2972 24.0363 93° East  Level Estimated
Mon 04:45:00 AM 41.2915 24.1593 94° East  Level Estimated
Mon 04:46:00 AM 41.2857 24.2823 94° East  Level Estimated
Mon 04:47:00 AM 41.2797 24.4053 94° East  Level Estimated
Mon 04:48:00 AM 41.2736 24.5282 94° East  Level Estimated
Mon 04:49:00 AM 41.2673 24.6512 94° East  Level Estimated
Mon 04:50:00 AM 41.2609 24.7741 94° East  Level Estimated
Mon 04:51:00 AM 41.2544 24.8970 94° East  Level Estimated
Mon 04:52:00 AM 41.2478 25.0198 94° East  Level Estimated
Mon 04:53:00 AM 41.2410 25.1427 94° East  Level Estimated
Mon 04:54:00 AM 41.2341 25.2655 94° East  Level Estimated
Mon 04:55:00 AM 41.2271 25.3883 94° East  Level Estimated
Mon 04:56:00 AM 41.2199 25.5110 94° East  Level Estimated
Mon 04:57:00 AM 41.2126 25.6337 94° East  Level Estimated
Mon 04:58:00 AM 41.2052 25.7564 95° East  Level Estimated
Mon 04:59:00 AM 41.1977 25.8791 95° East  Level Estimated
Mon 05:00:00 AM 41.1900 26.0018 95° East  Level Estimated
Mon 05:01:00 AM 41.1822 26.1244 95° East  Level Estimated
Mon 05:02:00 AM 41.1742 26.2470 95° East  Level Estimated
Mon 05:03:00 AM 41.1662 26.3695 95° East  Level Estimated
Mon 05:04:00 AM 41.1580 26.4920 95° East  Level Estimated
Mon 05:05:00 AM 41.1496 26.6145 95° East  Level Estimated
Mon 05:06:00 AM 41.1412 26.7370 95° East  Level Estimated
Mon 05:07:00 AM 41.1326 26.8594 95° East  Level Estimated
Mon 05:08:00 AM 41.1239 26.9818 95° East  Level Estimated
Mon 05:09:00 AM 41.1150 27.1042 95° East  Level Estimated
Mon 05:10:00 AM 41.1060 27.2265 96° East  Level Estimated
Mon 05:11:00 AM 41.0969 27.3488 96° East  Level Estimated
Mon 05:12:00 AM 41.0877 27.4711 96° East  Level Estimated
Mon 05:13:00 AM 41.0783 27.5933 96° East  Level Estimated
Mon 05:14:00 AM 41.0688 27.7155 96° East  Level Estimated
Mon 05:15:00 AM 41.0592 27.8377 96° East  Level Estimated
Mon 05:16:00 AM 41.0494 27.9598 96° East  Level Estimated
Mon 05:17:00 AM 41.0396 28.0819 96° East  Level Estimated
Mon 05:18:00 AM 41.0295 28.2039 96° East  Level Estimated
Mon 05:19:00 AM 41.0194 28.3260 96° East  Level Estimated
Mon 05:20:00 AM 41.0091 28.4479 96° East  Level Estimated
Mon 05:21:00 AM 40.9987 28.5699 96° East  Level Estimated
Mon 05:22:00 AM 40.9882 28.6918 96° East  Level Estimated
Mon 05:23:00 AM 40.9776 28.8136 97° East  Level Estimated
Mon 05:24:00 AM 40.9769 28.8211 97° East  Level Estimated
Mon 05:25:00 AM 40.9769 28.8211 North  Level Estimated
Mon 05:26:00 AM 40.9769 28.8211 North  Level Estimated
Mon 05:27:00 AM 40.9769 28.8211 North  Level Estimated
Mon 05:28:00 AM 40.9769 28.8211 North  Level Estimated
Mon 05:29:00 AM 40.9769 28.8211 North  Level Estimated
Mon 05:30:00 AM 40.9769 28.8211 North  Level Estimated
Mon 05:31:00 AM 40.9769 28.8211 North  Level Estimated
Mon 05:32:00 AM 40.9769 28.8211 North  Level Estimated
Mon 05:33:00 AM 40.9769 28.8211 North  Level Estimated
Mon 05:34:00 AM 40.9769 28.8211 North  Level Estimated
Mon 05:35:00 AM 40.9769 28.8211 North  Level Estimated
Mon 05:36:00 AM 40.9769 28.8211 North  Level Estimated
Mon 05:37:00 AM 40.9769 28.8211 North  Level Estimated
Mon 05:38:00 AM 40.9769 28.8211 North  Level Estimated
Mon 05:39:00 AM 40.9769 28.8211 North  Level Estimated

Login

Don't have an account? Register now (free) for customized features, flight alerts, and more!